Time;durP1;ratioP1;P1;durP2;ratioP2;P2;SDS_P1;SDS_P2;PMS_P1;PMS_P2;Temp;Humidity;BMP_temperature;BMP_pressure;BME280_temperature;BME280_humidity;BME280_pressure;Samples;Min_cycle;Max_cycle;Signal;HPM_P1;HPM_P2
2023/02/19 00:01:15;;;;;;;;;;;;;;;;;;5003139;28;5092;-57
2023/02/19 00:03:41;;;;;;;;;;;;;;;;;;4985390;28;5127;-57
2023/02/19 00:06:07;;;;;;;;;;;;;;;;;;5001976;28;5031;-57
2023/02/19 00:08:32;;;;;;;;;;;;;;;;;;5002014;28;3542;-57
2023/02/19 00:11:16;;;;;;;;;;;;;;;;;;4993740;28;4984;-56
2023/02/19 00:13:42;;;;;;;;;;;;;;;;;;5003768;28;4899;-54
2023/02/19 00:16:08;;;;;;;;;;;;;;;;;;4982714;28;4685;-56
2023/02/19 00:18:34;;;;;;;;;;;;;;;;;;5004746;28;5115;-56
2023/02/19 00:20:59;;;;;;;;;;;;;;;;;;4999564;28;5155;-55
2023/02/19 00:23:25;;;;;;;;;;;;;;;;;;5001944;28;3562;-56
2023/02/19 00:25:51;;;;;;;;;;;;;;;;;;5004783;28;5050;-55
2023/02/19 00:28:16;;;;;;;;;;;;;;;;;;5007130;28;4733;-54
2023/02/19 00:30:41;;;;;;;;;;;;;;;;;;4989513;28;5161;-54
2023/02/19 00:33:07;;;;;;;;;;;;;;;;;;5007010;28;4493;-56
2023/02/19 00:35:33;;;;;;;;;;;;;;;;;;5006551;28;3311;-57
2023/02/19 00:37:58;;;;;;;;;;;;;;;;;;4998459;28;4973;-57
2023/02/19 00:40:24;;;;;;;;;;;;;;;;;;4997961;28;4860;-57
2023/02/19 00:42:50;;;;;;;;;;;;;;;;;;5006939;28;5186;-56
2023/02/19 00:45:15;;;;;;;;;;;;;;;;;;5010276;28;5125;-56
2023/02/19 00:47:40;;;;;;;;;;;;;;;;;;5007464;28;3278;-57
2023/02/19 00:50:06;;;;;;;;;;;;;;;;;;5010957;28;4831;-57
2023/02/19 00:52:31;;;;;;;;;;;;;;;;;;5009750;28;4649;-56
2023/02/19 00:54:56;;;;;;;;;;;;;;;;;;5007612;28;4975;-57
2023/02/19 00:57:22;;;;;;;;;;;;;;;;;;5010609;28;5004;-57
2023/02/19 00:59:47;;;;;;;;;;;;;;;;;;5005040;28;4599;-56
2023/02/19 01:02:12;;;;;;;;;;;;;;;;;;5004913;28;3305;-57
2023/02/19 01:04:37;;;;;;;;;;;;;;;;;;5002309;28;4886;-56
2023/02/19 01:07:03;;;;;;;;;;;;;;;;;;5008457;28;5143;-57
2023/02/19 01:09:28;;;;;;;;;;;;;;;;;;5006066;28;5157;-54
2023/02/19 01:11:53;;;;;;;;;;;;;;;;;;5008857;28;5160;-56
2023/02/19 01:14:18;;;;;;;;;;;;;;;;;;5007718;28;3713;-57
2023/02/19 01:16:44;;;;;;;;;;;;;;;;;;5010102;28;5191;-55
2023/02/19 01:19:09;;;;;;;;;;;;;;;;;;5006517;28;5143;-57
2023/02/19 01:21:34;;;;;;;;;;;;;;;;;;5000073;28;4481;-55
2023/02/19 01:23:59;;;;;;;;;;;;;;;;;;5001112;28;5185;-56
2023/02/19 01:26:28;;;;;;;;;;;;;;;;;;5010819;28;1168;-57
2023/02/19 01:28:53;;;;;;;;;;;;;;;;;;5009528;28;5073;-56
2023/02/19 01:31:20;;;;;;;;;;;;;;;;;;5003061;28;5056;-56
2023/02/19 01:33:46;;;;;;;;;;;;;;;;;;5004771;28;5134;-55
2023/02/19 01:36:11;;;;;;;;;;;;;;;;;;5003915;28;4459;-57
2023/02/19 01:38:36;;;;;;;;;;;;;;;;;;5010765;28;3474;-54
2023/02/19 01:41:02;;;;;;;;;;;;;;;;;;5002096;28;5189;-56
2023/02/19 01:43:27;;;;;;;;;;;;;;;;;;5002713;28;5104;-58
2023/02/19 01:45:53;;;;;;;;;;;;;;;;;;5005151;28;5131;-56
2023/02/19 01:48:21;;;;;;;;;;;;;;;;;;5004399;28;5117;-56
2023/02/19 01:50:48;;;;;;;;;;;;;;;;;;5001469;28;5202;-55
2023/02/19 01:53:13;;;;;;;;;;;;;;;;;;5007333;28;3452;-55
2023/02/19 01:55:38;;;;;;;;;;;;;;;;;;5008300;28;5044;-56
2023/02/19 01:58:04;;;;;;;;;;;;;;;;;;5009576;28;4972;-56
2023/02/19 02:00:29;;;;;;;;;;;;;;;;;;5001288;28;5002;-57
2023/02/19 02:02:55;;;;;;;;;;;;;;;;;;5004118;28;4852;-55
2023/02/19 02:05:22;;;;;;;;;;;;;;;;;;5000761;28;3235;-56
2023/02/19 02:10:32;;;;;;;;;;;;;;;;;;5007468;28;4979;-56
2023/02/19 02:12:57;;;;;;;;;;;;;;;;;;5006862;28;5005;-51
2023/02/19 02:15:23;;;;;;;;;;;;;;;;;;4999368;28;5274;-57
2023/02/19 02:17:51;;;;;;;;;;;;;;;;;;4998595;28;5251;-55
2023/02/19 02:20:26;;;;;;;;;;;;;;;;;;5003866;28;3384;-55
2023/02/19 02:22:53;;;;;;;;;;;;;;;;;;4995505;28;4821;-56
2023/02/19 02:25:31;;;;;;;;;;;;;;;;;;5000508;28;5074;-56
2023/02/19 02:28:05;;;;;;;;;;;;;;;;;;5005562;28;4732;-57
2023/02/19 02:30:32;;;;;;;;;;;;;;;;;;4998737;28;5389;-56
2023/02/19 02:33:15;;;;;;;;;;;;;;;;;;4996210;28;5079;-56
2023/02/19 02:35:50;;;;;;;;;;;;;;;;;;5007775;28;3333;-56
2023/02/19 02:38:16;;;;;;;;;;;;;;;;;;4983569;28;5169;-55
2023/02/19 02:40:41;;;;;;;;;;;;;;;;;;5004460;28;5038;-56
2023/02/19 02:43:06;;;;;;;;;;;;;;;;;;4988506;28;5123;-56
2023/02/19 02:45:35;;;;;;;;;;;;;;;;;;5000211;28;5206;-54
2023/02/19 02:48:12;;;;;;;;;;;;;;;;;;5001984;28;5177;-56
2023/02/19 02:51:01;;;;;;;;;;;;;;;;;;5006448;28;3413;-56
2023/02/19 02:56:15;;;;;;;;;;;;;;;;;;4988172;28;4665;-56
2023/02/19 02:58:41;;;;;;;;;;;;;;;;;;4983580;28;5123;-57
2023/02/19 03:03:52;;;;;;;;;;;;;;;;;;4997030;28;5194;-57
2023/02/19 03:06:18;;;;;;;;;;;;;;;;;;5002550;28;5113;-56
2023/02/19 03:09:03;;;;;;;;;;;;;;;;;;4986786;28;5087;-55
2023/02/19 03:20:06;;;;;;;;;;;;;;;;;;5003761;28;5010;-57
2023/02/19 03:22:32;;;;;;;;;;;;;;;;;;4979771;28;5079;-57
2023/02/19 03:27:48;;;;;;;;;;;;;;;;;;4986334;28;5169;-56
2023/02/19 03:30:15;;;;;;;;;;;;;;;;;;5007826;28;4700;-55
2023/02/19 03:33:00;;;;;;;;;;;;;;;;;;5013802;28;1097;-57
2023/02/19 03:35:29;;;;;;;;;;;;;;;;;;4999977;28;5089;-56
2023/02/19 03:38:11;;;;;;;;;;;;;;;;;;5012307;28;5114;-57
2023/02/19 03:40:40;;;;;;;;;;;;;;;;;;4998186;28;4499;-57
2023/02/19 03:43:15;;;;;;;;;;;;;;;;;;4982358;28;4511;-57
2023/02/19 03:45:59;;;;;;;;;;;;;;;;;;5006598;28;4867;-56
2023/02/19 03:48:24;;;;;;;;;;;;;;;;;;5000186;28;4986;-56
2023/02/19 03:50:55;;;;;;;;;;;;;;;;;;5004919;28;5110;-56
2023/02/19 03:53:23;;;;;;;;;;;;;;;;;;5008273;28;1526;-56
2023/02/19 03:55:48;;;;;;;;;;;;;;;;;;5002729;28;5077;-56
2023/02/19 03:58:15;;;;;;;;;;;;;;;;;;5004833;28;5162;-56
2023/02/19 04:00:43;;;;;;;;;;;;;;;;;;5002696;28;4904;-55
2023/02/19 04:03:14;;;;;;;;;;;;;;;;;;5000784;28;5086;-56
2023/02/19 04:05:41;;;;;;;;;;;;;;;;;;5004500;28;3662;-56
2023/02/19 04:08:08;;;;;;;;;;;;;;;;;;4984794;28;4999;-57
2023/02/19 04:10:33;;;;;;;;;;;;;;;;;;5002280;28;5207;-57
2023/02/19 04:13:00;;;;;;;;;;;;;;;;;;4989974;28;5012;-57
2023/02/19 04:15:26;;;;;;;;;;;;;;;;;;5004365;28;5089;-57
2023/02/19 04:17:52;;;;;;;;;;;;;;;;;;5002557;28;4965;-57
2023/02/19 04:20:17;;;;;;;;;;;;;;;;;;5004429;28;3229;-56
2023/02/19 04:22:42;;;;;;;;;;;;;;;;;;4995711;28;5104;-56
2023/02/19 04:25:08;;;;;;;;;;;;;;;;;;5003638;28;5079;-57
2023/02/19 04:27:39;;;;;;;;;;;;;;;;;;4989790;28;5048;-57
2023/02/19 04:30:05;;;;;;;;;;;;;;;;;;5001182;28;5201;-56
2023/02/19 04:32:30;;;;;;;;;;;;;;;;;;4989966;28;3553;-57
2023/02/19 04:34:55;;;;;;;;;;;;;;;;;;5006881;28;5039;-56
2023/02/19 04:37:21;;;;;;;;;;;;;;;;;;5001006;28;5102;-56
2023/02/19 04:39:46;;;;;;;;;;;;;;;;;;5000258;28;4918;-55
2023/02/19 04:42:11;;;;;;;;;;;;;;;;;;5010261;28;5080;-56
2023/02/19 04:44:36;;;;;;;;;;;;;;;;;;4986473;28;3347;-56
2023/02/19 04:47:02;;;;;;;;;;;;;;;;;;5006151;28;4444;-56
2023/02/19 04:49:27;;;;;;;;;;;;;;;;;;5004213;28;4849;-56
2023/02/19 04:51:52;;;;;;;;;;;;;;;;;;4994555;28;4984;-57
2023/02/19 04:54:18;;;;;;;;;;;;;;;;;;5001750;28;4724;-57
2023/02/19 04:56:43;;;;;;;;;;;;;;;;;;5011041;28;5047;-51
2023/02/19 04:59:08;;;;;;;;;;;;;;;;;;5003907;28;3469;-54
2023/02/19 05:01:33;;;;;;;;;;;;;;;;;;5003291;28;4982;-57
2023/02/19 05:03:59;;;;;;;;;;;;;;;;;;5000331;28;5403;-54
2023/02/19 05:06:24;;;;;;;;;;;;;;;;;;5004699;28;5144;-56
2023/02/19 05:08:49;;;;;;;;;;;;;;;;;;4998042;28;5027;-56
2023/02/19 05:11:14;;;;;;;;;;;;;;;;;;5005901;28;3410;-57
2023/02/19 05:13:40;;;;;;;;;;;;;;;;;;5000184;28;5003;-56
2023/02/19 05:16:14;;;;;;;;;;;;;;;;;;5003390;28;5023;-57
2023/02/19 05:18:40;;;;;;;;;;;;;;;;;;5002615;28;5204;-57
2023/02/19 05:21:05;;;;;;;;;;;;;;;;;;5002871;28;5237;-56
2023/02/19 05:23:30;;;;;;;;;;;;;;;;;;5018421;28;3496;-56
2023/02/19 05:25:56;;;;;;;;;;;;;;;;;;5004125;28;4483;-56
2023/02/19 05:28:27;;;;;;;;;;;;;;;;;;5001653;28;5066;-57
2023/02/19 05:30:52;;;;;;;;;;;;;;;;;;5006216;28;5152;-57
2023/02/19 05:33:18;;;;;;;;;;;;;;;;;;5008834;28;5536;-56
2023/02/19 05:35:44;;;;;;;;;;;;;;;;;;4990279;28;4837;-55
2023/02/19 05:38:10;;;;;;;;;;;;;;;;;;5008745;28;3394;-56
2023/02/19 05:40:35;;;;;;;;;;;;;;;;;;5009818;28;4475;-55
2023/02/19 05:43:00;;;;;;;;;;;;;;;;;;5007258;28;5010;-56
2023/02/19 05:45:26;;;;;;;;;;;;;;;;;;5002892;28;4499;-55
2023/02/19 05:47:51;;;;;;;;;;;;;;;;;;5003620;28;5077;-56
2023/02/19 05:50:16;;;;;;;;;;;;;;;;;;5008330;28;3525;-56
2023/02/19 05:52:43;;;;;;;;;;;;;;;;;;5008240;28;4755;-57
2023/02/19 05:55:08;;;;;;;;;;;;;;;;;;5014056;28;4454;-56
2023/02/19 05:57:38;;;;;;;;;;;;;;;;;;5007421;28;4920;-56
2023/02/19 06:00:03;;;;;;;;;;;;;;;;;;5008314;28;5146;-56
2023/02/19 06:02:29;;;;;;;;;;;;;;;;;;5007637;28;3462;-53
2023/02/19 06:04:54;;;;;;;;;;;;;;;;;;4999223;28;5048;-56
2023/02/19 06:07:19;;;;;;;;;;;;;;;;;;5007275;28;4635;-57
2023/02/19 06:09:44;;;;;;;;;;;;;;;;;;5009796;28;5130;-57
2023/02/19 06:12:10;;;;;;;;;;;;;;;;;;5007443;28;5084;-57
2023/02/19 06:14:35;;;;;;;;;;;;;;;;;;5009124;28;1348;-57
2023/02/19 06:17:00;;;;;;;;;;;;;;;;;;5003194;28;4986;-56
2023/02/19 06:19:25;;;;;;;;;;;;;;;;;;5003812;28;4472;-56
2023/02/19 06:21:51;;;;;;;;;;;;;;;;;;4998084;28;5138;-54
2023/02/19 06:24:16;;;;;;;;;;;;;;;;;;4998461;28;4702;-55
2023/02/19 06:26:41;;;;;;;;;;;;;;;;;;5011076;28;1129;-55
2023/02/19 06:29:06;;;;;;;;;;;;;;;;;;5000347;28;4733;-55
2023/02/19 06:31:32;;;;;;;;;;;;;;;;;;5005343;28;4572;-56
2023/02/19 06:33:57;;;;;;;;;;;;;;;;;;5006667;28;5026;-54
2023/02/19 06:36:22;;;;;;;;;;;;;;;;;;5010870;28;5339;-54
2023/02/19 06:38:47;;;;;;;;;;;;;;;;;;5001149;28;4658;-54
2023/02/19 06:41:13;;;;;;;;;;;;;;;;;;5006399;28;3585;-55
2023/02/19 06:43:38;;;;;;;;;;;;;;;;;;5001160;28;4932;-55
2023/02/19 06:46:04;;;;;;;;;;;;;;;;;;5007674;28;5039;-56
2023/02/19 06:48:29;;;;;;;;;;;;;;;;;;5006830;28;5077;-56
2023/02/19 06:50:54;;;;;;;;;;;;;;;;;;5012261;28;5020;-56
2023/02/19 06:53:20;;;;;;;;;;;;;;;;;;5004412;28;3612;-56
2023/02/19 06:56:05;;;;;;;;;;;;;;;;;;5002336;28;4526;-56
2023/02/19 06:58:31;;;;;;;;;;;;;;;;;;4983919;28;4758;-57
2023/02/19 07:00:56;;;;;;;;;;;;;;;;;;5000853;28;5056;-56
2023/02/19 07:03:23;;;;;;;;;;;;;;;;;;5006068;28;4575;-56
2023/02/19 07:05:48;;;;;;;;;;;;;;;;;;5007243;28;5009;-55
2023/02/19 07:08:16;;;;;;;;;;;;;;;;;;5009460;28;1241;-56
2023/02/19 07:10:41;;;;;;;;;;;;;;;;;;5004979;28;4875;-56
2023/02/19 07:13:06;;;;;;;;;;;;;;;;;;4999571;28;5070;-55
2023/02/19 07:15:31;;;;;;;;;;;;;;;;;;4999608;28;4778;-54
2023/02/19 07:17:57;;;;;;;;;;;;;;;;;;5008922;28;4552;-56
2023/02/19 07:20:23;;;;;;;;;;;;;;;;;;5004327;28;3602;-55
2023/02/19 07:22:48;;;;;;;;;;;;;;;;;;5000755;28;5280;-56
2023/02/19 07:25:13;;;;;;;;;;;;;;;;;;5002538;28;5105;-55
2023/02/19 07:27:39;;;;;;;;;;;;;;;;;;5002212;28;5118;-55
2023/02/19 07:30:04;;;;;;;;;;;;;;;;;;5005413;28;4557;-56
2023/02/19 07:32:29;;;;;;;;;;;;;;;;;;5006030;28;3683;-56
2023/02/19 07:34:54;;;;;;;;;;;;;;;;;;5004205;28;4618;-55
2023/02/19 07:37:20;;;;;;;;;;;;;;;;;;5003498;28;4996;-56
2023/02/19 07:39:45;;;;;;;;;;;;;;;;;;5001913;28;5096;-56
2023/02/19 07:42:10;;;;;;;;;;;;;;;;;;5001403;28;5138;-56
2023/02/19 07:44:36;;;;;;;;;;;;;;;;;;5002798;28;3432;-56
2023/02/19 07:47:01;;;;;;;;;;;;;;;;;;5003418;28;4887;-55
2023/02/19 07:49:27;;;;;;;;;;;;;;;;;;5006290;28;4472;-56
2023/02/19 07:51:52;;;;;;;;;;;;;;;;;;4999893;28;5037;-56
2023/02/19 07:54:18;;;;;;;;;;;;;;;;;;5002083;28;5083;-56
2023/02/19 07:56:43;;;;;;;;;;;;;;;;;;5002815;28;4511;-51
2023/02/19 07:59:08;;;;;;;;;;;;;;;;;;5002646;28;3488;-56
2023/02/19 08:04:17;;;;;;;;;;;;;;;;;;4985912;28;5018;-56
2023/02/19 08:06:43;;;;;;;;;;;;;;;;;;4985221;28;4648;-55
2023/02/19 08:09:08;;;;;;;;;;;;;;;;;;5001548;28;4688;-57
2023/02/19 08:14:17;;;;;;;;;;;;;;;;;;5005147;28;4791;-56
2023/02/19 08:16:49;;;;;;;;;;;;;;;;;;5003909;28;4472;-56
2023/02/19 08:19:14;;;;;;;;;;;;;;;;;;4999392;28;5271;-55
2023/02/19 08:21:39;;;;;;;;;;;;;;;;;;4999802;28;5389;-61
2023/02/19 08:24:05;;;;;;;;;;;;;;;;;;4972066;28;5080;-54
2023/02/19 08:26:31;;;;;;;;;;;;;;;;;;5009300;28;1181;-56
2023/02/19 08:28:57;;;;;;;;;;;;;;;;;;5000756;28;4562;-55
2023/02/19 08:31:23;;;;;;;;;;;;;;;;;;4998093;28;4924;-55
2023/02/19 08:33:48;;;;;;;;;;;;;;;;;;4991384;28;4712;-55
2023/02/19 08:36:13;;;;;;;;;;;;;;;;;;4995641;28;5027;-56
2023/02/19 08:38:38;;;;;;;;;;;;;;;;;;4994841;28;3702;-57
2023/02/19 08:41:05;;;;;;;;;;;;;;;;;;5003794;28;5156;-53
2023/02/19 08:43:30;;;;;;;;;;;;;;;;;;4988243;28;5100;-57
2023/02/19 08:45:55;;;;;;;;;;;;;;;;;;4991095;28;5041;-53
2023/02/19 08:48:21;;;;;;;;;;;;;;;;;;5005335;28;4920;-56
2023/02/19 08:50:52;;;;;;;;;;;;;;;;;;4998872;28;5272;-55
2023/02/19 08:53:17;;;;;;;;;;;;;;;;;;5007838;28;3337;-54
2023/02/19 08:55:42;;;;;;;;;;;;;;;;;;5001963;28;4942;-55
2023/02/19 08:58:07;;;;;;;;;;;;;;;;;;5002567;28;4982;-56
2023/02/19 09:00:33;;;;;;;;;;;;;;;;;;4985436;28;5151;-55
2023/02/19 09:02:58;;;;;;;;;;;;;;;;;;5002796;28;5034;-56
2023/02/19 09:05:23;;;;;;;;;;;;;;;;;;4999149;28;3559;-56
2023/02/19 09:07:48;;;;;;;;;;;;;;;;;;5009128;28;4626;-56
2023/02/19 09:10:14;;;;;;;;;;;;;;;;;;5009563;28;5071;-55
2023/02/19 09:12:39;;;;;;;;;;;;;;;;;;4998016;28;4990;-55
2023/02/19 09:15:05;;;;;;;;;;;;;;;;;;5002656;28;5314;-56
2023/02/19 09:17:30;;;;;;;;;;;;;;;;;;5007115;28;3546;-53
2023/02/19 09:19:55;;;;;;;;;;;;;;;;;;5009481;28;5089;-56
2023/02/19 09:22:21;;;;;;;;;;;;;;;;;;4996095;28;5347;-54
2023/02/19 09:24:46;;;;;;;;;;;;;;;;;;5009483;28;5197;-56
2023/02/19 09:27:15;;;;;;;;;;;;;;;;;;5010326;28;5005;-56
2023/02/19 09:29:40;;;;;;;;;;;;;;;;;;5001688;28;4620;-55
2023/02/19 09:32:06;;;;;;;;;;;;;;;;;;5006474;28;5065;-57
2023/02/19 09:34:31;;;;;;;;;;;;;;;;;;5009288;28;4937;-56
2023/02/19 09:36:56;;;;;;;;;;;;;;;;;;4999086;28;5124;-55
2023/02/19 09:39:21;;;;;;;;;;;;;;;;;;5010970;28;5121;-58
2023/02/19 09:41:48;;;;;;;;;;;;;;;;;;5010197;28;4962;-55
2023/02/19 09:44:14;;;;;;;;;;;;;;;;;;5010083;28;3680;-56
2023/02/19 09:46:43;;;;;;;;;;;;;;;;;;4997082;28;4504;-54
2023/02/19 09:49:15;;;;;;;;;;;;;;;;;;4986277;28;4714;-52
2023/02/19 09:51:42;;;;;;;;;;;;;;;;;;5002974;28;4559;-58
2023/02/19 09:54:11;;;;;;;;;;;;;;;;;;5002963;28;5123;-56
2023/02/19 09:56:36;;;;;;;;;;;;;;;;;;4989084;28;3343;-57
2023/02/19 09:59:02;;;;;;;;;;;;;;;;;;4987932;28;5452;-49
2023/02/19 10:01:28;;;;;;;;;;;;;;;;;;5000657;28;5443;-56
2023/02/19 10:03:54;;;;;;;;;;;;;;;;;;5003741;28;5028;-57
2023/02/19 10:06:23;;;;;;;;;;;;;;;;;;5004803;28;4579;-58
2023/02/19 10:08:50;;;;;;;;;;;;;;;;;;5001777;28;5183;-58
2023/02/19 10:11:15;;;;;;;;;;;;;;;;;;5004177;28;4053;-58
2023/02/19 10:13:41;;;;;;;;;;;;;;;;;;4998826;28;5091;-58
2023/02/19 10:16:09;;;;;;;;;;;;;;;;;;5008372;28;5167;-59
2023/02/19 10:18:37;;;;;;;;;;;;;;;;;;5001384;28;5079;-58
2023/02/19 10:21:02;;;;;;;;;;;;;;;;;;5002987;28;4810;-59
2023/02/19 10:23:27;;;;;;;;;;;;;;;;;;4995351;28;3777;-58
2023/02/19 10:25:55;;;;;;;;;;;;;;;;;;4984542;28;5186;-58
2023/02/19 10:28:21;;;;;;;;;;;;;;;;;;5005333;28;5059;-58
2023/02/19 10:30:48;;;;;;;;;;;;;;;;;;4991732;28;5748;-67
2023/02/19 10:33:14;;;;;;;;;;;;;;;;;;4997315;28;4939;-58
2023/02/19 10:35:51;;;;;;;;;;;;;;;;;;5007203;28;3443;-58
2023/02/19 10:38:17;;;;;;;;;;;;;;;;;;5007370;28;4739;-59
2023/02/19 10:40:45;;;;;;;;;;;;;;;;;;5013229;28;5112;-60
2023/02/19 10:43:19;;;;;;;;;;;;;;;;;;4988668;28;5030;-58
2023/02/19 10:45:46;;;;;;;;;;;;;;;;;;4993535;28;4508;-58
2023/02/19 10:48:20;;;;;;;;;;;;;;;;;;5009304;28;5424;-58
2023/02/19 10:50:45;;;;;;;;;;;;;;;;;;5007333;28;4778;-58
2023/02/19 10:53:19;;;;;;;;;;;;;;;;;;4989373;28;3493;-58
2023/02/19 10:55:44;;;;;;;;;;;;;;;;;;4988677;28;4395;-59
2023/02/19 10:58:24;;;;;;;;;;;;;;;;;;5001791;28;5126;-58
2023/02/19 11:00:58;;;;;;;;;;;;;;;;;;5000940;28;5128;-58
2023/02/19 11:03:23;;;;;;;;;;;;;;;;;;5012965;28;4993;-58
2023/02/19 11:05:54;;;;;;;;;;;;;;;;;;5012308;28;5067;-58
2023/02/19 11:08:20;;;;;;;;;;;;;;;;;;5005798;28;3415;-58
2023/02/19 11:10:46;;;;;;;;;;;;;;;;;;5001593;28;5172;-58
2023/02/19 11:13:13;;;;;;;;;;;;;;;;;;5001722;28;4841;-58
2023/02/19 11:15:38;;;;;;;;;;;;;;;;;;5007265;28;4942;-58
2023/02/19 11:18:07;;;;;;;;;;;;;;;;;;5003517;28;4985;-59
2023/02/19 11:20:32;;;;;;;;;;;;;;;;;;4989221;28;3244;-58
2023/02/19 11:22:59;;;;;;;;;;;;;;;;;;5005050;28;4891;-58
2023/02/19 11:25:24;;;;;;;;;;;;;;;;;;4998811;28;5106;-58
2023/02/19 11:28:08;;;;;;;;;;;;;;;;;;5004043;28;5179;-57
2023/02/19 11:30:35;;;;;;;;;;;;;;;;;;5005437;28;5119;-55
2023/02/19 11:33:15;;;;;;;;;;;;;;;;;;5006128;28;5083;-58
2023/02/19 11:35:40;;;;;;;;;;;;;;;;;;5009081;28;1070;-57
2023/02/19 11:38:07;;;;;;;;;;;;;;;;;;4997321;28;4543;-54
2023/02/19 11:40:35;;;;;;;;;;;;;;;;;;5008923;28;5166;-56
2023/02/19 11:43:06;;;;;;;;;;;;;;;;;;5005638;28;5028;-58
2023/02/19 11:45:31;;;;;;;;;;;;;;;;;;4993671;28;4517;-62
2023/02/19 11:48:01;;;;;;;;;;;;;;;;;;5003179;28;4538;-58
2023/02/19 11:50:33;;;;;;;;;;;;;;;;;;4997553;28;3516;-58
2023/02/19 11:53:02;;;;;;;;;;;;;;;;;;4990081;28;4855;-57
2023/02/19 11:55:27;;;;;;;;;;;;;;;;;;5000078;28;5154;-61
2023/02/19 11:58:11;;;;;;;;;;;;;;;;;;5005707;28;5008;-58
2023/02/19 12:00:52;;;;;;;;;;;;;;;;;;5002184;28;5218;-58
2023/02/19 12:03:36;;;;;;;;;;;;;;;;;;5010257;28;5193;-58
2023/02/19 12:06:04;;;;;;;;;;;;;;;;;;5004436;28;4882;-58
2023/02/19 12:08:35;;;;;;;;;;;;;;;;;;5002548;28;1175;-58
2023/02/19 12:11:24;;;;;;;;;;;;;;;;;;5003032;28;4472;-59
2023/02/19 12:14:00;;;;;;;;;;;;;;;;;;4975787;28;4880;-58
2023/02/19 12:16:48;;;;;;;;;;;;;;;;;;5001566;28;5230;-58
2023/02/19 12:19:14;;;;;;;;;;;;;;;;;;5001213;28;5100;-58
2023/02/19 12:21:45;;;;;;;;;;;;;;;;;;4998140;28;5342;-58
2023/02/19 12:24:14;;;;;;;;;;;;;;;;;;4997559;28;4866;-58
2023/02/19 12:26:46;;;;;;;;;;;;;;;;;;5005803;28;1109;-58
2023/02/19 12:29:16;;;;;;;;;;;;;;;;;;5001327;28;5170;-59
2023/02/19 12:31:45;;;;;;;;;;;;;;;;;;5001128;28;4689;-57
2023/02/19 12:34:30;;;;;;;;;;;;;;;;;;5001193;28;5090;-58
2023/02/19 12:37:01;;;;;;;;;;;;;;;;;;5002235;28;4699;-58
2023/02/19 12:39:29;;;;;;;;;;;;;;;;;;5008070;28;5194;-58
2023/02/19 12:42:00;;;;;;;;;;;;;;;;;;4998384;28;5155;-56
2023/02/19 12:44:46;;;;;;;;;;;;;;;;;;5004933;28;2304;-56
2023/02/19 12:47:16;;;;;;;;;;;;;;;;;;5004730;28;5035;-56
2023/02/19 12:49:42;;;;;;;;;;;;;;;;;;4992609;28;4920;-57
2023/02/19 12:52:14;;;;;;;;;;;;;;;;;;5001448;28;5089;-58
2023/02/19 12:54:43;;;;;;;;;;;;;;;;;;5000435;28;5304;-58
2023/02/19 12:57:09;;;;;;;;;;;;;;;;;;5006950;28;4669;-59
2023/02/19 12:59:35;;;;;;;;;;;;;;;;;;5002408;28;1114;-58
2023/02/19 13:02:32;;;;;;;;;;;;;;;;;;5007825;28;5094;-56
2023/02/19 13:05:05;;;;;;;;;;;;;;;;;;4980658;28;4996;-58
2023/02/19 13:07:30;;;;;;;;;;;;;;;;;;4986733;28;5024;-58
2023/02/19 13:10:21;;;;;;;;;;;;;;;;;;5001860;28;4626;-58
2023/02/19 13:12:46;;;;;;;;;;;;;;;;;;5003013;28;4950;-58
2023/02/19 13:15:13;;;;;;;;;;;;;;;;;;5004081;28;5526;-58
2023/02/19 13:18:04;;;;;;;;;;;;;;;;;;5007615;28;1484;-58
2023/02/19 13:20:31;;;;;;;;;;;;;;;;;;4999958;28;5138;-57
2023/02/19 13:25:43;;;;;;;;;;;;;;;;;;5006342;28;5116;-58
2023/02/19 13:28:11;;;;;;;;;;;;;;;;;;5007996;28;5074;-59
2023/02/19 13:30:39;;;;;;;;;;;;;;;;;;4997108;28;5091;-56
2023/02/19 13:33:23;;;;;;;;;;;;;;;;;;4993349;28;4909;-58
2023/02/19 13:35:51;;;;;;;;;;;;;;;;;;4999156;28;4492;-58
2023/02/19 13:38:17;;;;;;;;;;;;;;;;;;5007452;28;1199;-59
2023/02/19 13:40:51;;;;;;;;;;;;;;;;;;5007517;28;5062;-59
2023/02/19 13:43:24;;;;;;;;;;;;;;;;;;5003456;28;4701;-58
2023/02/19 13:45:52;;;;;;;;;;;;;;;;;;4998219;28;4731;-59
2023/02/19 13:48:20;;;;;;;;;;;;;;;;;;4998703;28;4675;-58
2023/02/19 13:50:46;;;;;;;;;;;;;;;;;;5001100;28;5023;-59
2023/02/19 13:53:30;;;;;;;;;;;;;;;;;;4999432;28;1395;-57
2023/02/19 13:55:55;;;;;;;;;;;;;;;;;;5001323;28;4857;-58
2023/02/19 13:58:32;;;;;;;;;;;;;;;;;;5005331;28;5075;-57
2023/02/19 14:01:00;;;;;;;;;;;;;;;;;;5008702;28;5127;-58
2023/02/19 14:03:26;;;;;;;;;;;;;;;;;;5006935;28;5166;-58
2023/02/19 14:05:57;;;;;;;;;;;;;;;;;;5007477;28;4987;-58
2023/02/19 14:08:41;;;;;;;;;;;;;;;;;;5011281;28;1278;-57
2023/02/19 14:11:07;;;;;;;;;;;;;;;;;;5003999;28;4968;-55
2023/02/19 14:13:51;;;;;;;;;;;;;;;;;;5006660;28;5205;-58
2023/02/19 14:16:28;;;;;;;;;;;;;;;;;;5009672;28;5138;-58
2023/02/19 14:18:55;;;;;;;;;;;;;;;;;;5004671;28;4664;-58
2023/02/19 14:21:46;;;;;;;;;;;;;;;;;;5000805;28;4607;-58
2023/02/19 14:24:12;;;;;;;;;;;;;;;;;;5008708;28;4997;-57
2023/02/19 14:26:37;;;;;;;;;;;;;;;;;;5008198;28;3363;-56
2023/02/19 14:29:02;;;;;;;;;;;;;;;;;;5004538;28;5191;-58
2023/02/19 14:31:32;;;;;;;;;;;;;;;;;;5012817;28;5066;-58
2023/02/19 14:33:58;;;;;;;;;;;;;;;;;;4984966;28;4512;-58
2023/02/19 14:36:34;;;;;;;;;;;;;;;;;;5024035;28;4905;-58
2023/02/19 14:38:59;;;;;;;;;;;;;;;;;;5005352;28;5158;-59
2023/02/19 14:41:25;;;;;;;;;;;;;;;;;;5005314;28;3261;-58
2023/02/19 14:43:51;;;;;;;;;;;;;;;;;;4985966;28;4498;-58
2023/02/19 14:46:16;;;;;;;;;;;;;;;;;;4992032;28;4458;-56
2023/02/19 14:48:42;;;;;;;;;;;;;;;;;;5009744;28;5107;-58
2023/02/19 14:51:10;;;;;;;;;;;;;;;;;;5009658;28;4686;-58
2023/02/19 14:53:36;;;;;;;;;;;;;;;;;;5003262;28;1487;-58
2023/02/19 14:56:03;;;;;;;;;;;;;;;;;;5000337;28;4412;-58
2023/02/19 14:58:29;;;;;;;;;;;;;;;;;;4999111;28;5000;-57
2023/02/19 15:00:55;;;;;;;;;;;;;;;;;;5007497;28;5051;-58
2023/02/19 15:03:27;;;;;;;;;;;;;;;;;;5010155;28;5084;-58
2023/02/19 15:06:03;;;;;;;;;;;;;;;;;;4995429;28;4655;-58
2023/02/19 15:08:33;;;;;;;;;;;;;;;;;;5004762;28;3375;-58
2023/02/19 15:10:59;;;;;;;;;;;;;;;;;;5005930;28;5096;-58
2023/02/19 15:13:25;;;;;;;;;;;;;;;;;;5002998;28;4886;-58
2023/02/19 15:15:51;;;;;;;;;;;;;;;;;;5010108;28;5043;-58
2023/02/19 15:18:18;;;;;;;;;;;;;;;;;;5005697;28;5176;-58
2023/02/19 15:20:43;;;;;;;;;;;;;;;;;;4992301;28;1965;-58
2023/02/19 15:23:10;;;;;;;;;;;;;;;;;;4999251;28;4347;-58
2023/02/19 15:25:35;;;;;;;;;;;;;;;;;;5001712;28;5128;-58
2023/02/19 15:28:20;;;;;;;;;;;;;;;;;;4997671;28;4891;-58
2023/02/19 15:30:45;;;;;;;;;;;;;;;;;;5000586;28;5087;-58
2023/02/19 15:33:14;;;;;;;;;;;;;;;;;;4996784;28;5057;-58
2023/02/19 15:35:39;;;;;;;;;;;;;;;;;;5004548;28;3248;-58
2023/02/19 15:38:05;;;;;;;;;;;;;;;;;;5003228;28;5127;-58
2023/02/19 15:40:31;;;;;;;;;;;;;;;;;;4998396;28;5114;-58
2023/02/19 15:42:56;;;;;;;;;;;;;;;;;;4990274;28;5081;-58
2023/02/19 15:45:22;;;;;;;;;;;;;;;;;;5004051;28;5211;-57
2023/02/19 15:47:49;;;;;;;;;;;;;;;;;;4999559;28;4653;-58
2023/02/19 15:50:34;;;;;;;;;;;;;;;;;;4999480;28;4114;-57
2023/02/19 15:53:18;;;;;;;;;;;;;;;;;;4993632;28;4528;-60
2023/02/19 15:55:49;;;;;;;;;;;;;;;;;;4996424;28;5226;-57
2023/02/19 15:58:16;;;;;;;;;;;;;;;;;;4980754;28;5190;-58
2023/02/19 16:00:49;;;;;;;;;;;;;;;;;;4997578;28;5064;-56
2023/02/19 16:03:18;;;;;;;;;;;;;;;;;;4982405;28;4941;-57
2023/02/19 16:05:44;;;;;;;;;;;;;;;;;;4994185;28;5071;-55
2023/02/19 16:08:15;;;;;;;;;;;;;;;;;;4981400;28;3581;-57
2023/02/19 16:10:50;;;;;;;;;;;;;;;;;;5001052;28;5707;-57
2023/02/19 16:13:21;;;;;;;;;;;;;;;;;;4998499;28;5599;-55
2023/02/19 16:15:46;;;;;;;;;;;;;;;;;;5006120;28;4517;-57
2023/02/19 16:18:11;;;;;;;;;;;;;;;;;;4984373;28;4721;-57
2023/02/19 16:20:36;;;;;;;;;;;;;;;;;;5001218;28;3456;-57
2023/02/19 16:23:03;;;;;;;;;;;;;;;;;;5003512;28;4920;-57
2023/02/19 16:25:29;;;;;;;;;;;;;;;;;;4998377;28;4980;-57
2023/02/19 16:27:54;;;;;;;;;;;;;;;;;;5007419;28;5097;-56
2023/02/19 16:30:29;;;;;;;;;;;;;;;;;;5002572;28;4908;-58
2023/02/19 16:33:13;;;;;;;;;;;;;;;;;;4995680;28;5098;-57
2023/02/19 16:35:38;;;;;;;;;;;;;;;;;;5001988;28;3214;-57
2023/02/19 16:38:11;;;;;;;;;;;;;;;;;;4993027;28;5163;-56
2023/02/19 16:40:39;;;;;;;;;;;;;;;;;;5003692;28;4967;-55
2023/02/19 16:43:10;;;;;;;;;;;;;;;;;;5008707;28;4940;-55
2023/02/19 16:45:36;;;;;;;;;;;;;;;;;;5008086;28;4990;-53
2023/02/19 16:48:03;;;;;;;;;;;;;;;;;;5000059;28;5169;-59
2023/02/19 16:50:28;;;;;;;;;;;;;;;;;;5003912;28;3601;-56
2023/02/19 16:52:57;;;;;;;;;;;;;;;;;;5002787;28;5068;-54
2023/02/19 16:55:22;;;;;;;;;;;;;;;;;;5002882;28;4944;-57
2023/02/19 16:57:47;;;;;;;;;;;;;;;;;;5002752;28;5127;-58
2023/02/19 17:00:16;;;;;;;;;;;;;;;;;;4989015;28;5143;-59
2023/02/19 17:02:41;;;;;;;;;;;;;;;;;;5006239;28;1907;-58
2023/02/19 17:05:06;;;;;;;;;;;;;;;;;;4996380;28;4996;-57
2023/02/19 17:07:32;;;;;;;;;;;;;;;;;;5003508;28;5117;-51
2023/02/19 17:09:57;;;;;;;;;;;;;;;;;;5005769;28;4694;-57
2023/02/19 17:12:22;;;;;;;;;;;;;;;;;;5006059;28;4888;-57
2023/02/19 17:14:48;;;;;;;;;;;;;;;;;;5002518;28;5251;-55
2023/02/19 17:17:13;;;;;;;;;;;;;;;;;;4999729;28;3680;-54
2023/02/19 17:19:39;;;;;;;;;;;;;;;;;;4995747;28;5086;-59
2023/02/19 17:22:04;;;;;;;;;;;;;;;;;;4999458;28;5213;-68
2023/02/19 17:24:29;;;;;;;;;;;;;;;;;;5000393;28;4496;-68
2023/02/19 17:26:54;;;;;;;;;;;;;;;;;;5008368;28;5115;-70
2023/02/19 17:29:20;;;;;;;;;;;;;;;;;;5001964;28;4550;-67
2023/02/19 17:31:45;;;;;;;;;;;;;;;;;;5000215;28;4519;-68
2023/02/19 17:34:11;;;;;;;;;;;;;;;;;;5002328;28;4539;-67
2023/02/19 17:36:41;;;;;;;;;;;;;;;;;;5010973;28;5078;-65